메인 페이지
METAR-TAF:

METAR-TAF

공항 :

Jammu, 인도

위도: 32-41-21N, 경도: 74-50-15E, 고도: 314m

현재 날씨관측

예보는 1 시간 33분 전, 19:30시(UTC)에 발표되었습니다.
10kt
온도 26°C
습도 48%
기압 1009 hPa
시정: 6000m
고도 2500ft 상공 구름 보통
고도 3000ft 상공 구름 조금, 적란운.
고도 10000ft 상공 구름 많음

METAR: VIJU 251930Z 01010KT 6000 RETS SCT025 FEW030CB BKN100 26/14 Q1009 TEMPO 35015G25KT , TSRA

시각: 02:33 (21:03 UTC)

예보

예보는 11 시간 33분 전, 09:30시(UTC)에 발표되었습니다.
예보 대상 시간: 25일 18시부터 26일 12시까지 (UTC)
서남서12kt
시정: 5000m
고도 2500ft 상공 구름 보통
고도 3000ft 상공 구름 조금, 적란운.
고도 10000ft 상공 구름 보통
황사
전환 중
26일 00시부터 26일 01시까지 (UTC)
북북동7kt
시정: 6000m
고도 2500ft 상공 구름 보통
고도 10000ft 상공 구름 보통
전환 중
26일 07시부터 26일 08시까지 (UTC)
서남서8kt
시정: 6000m
고도 2500ft 상공 구름 조금
고도 10000ft 상공 구름 보통
일시적
26일 10시부터 26일 12시까지 (UTC)

TAF: VIJU 250930Z 2518/2612 25012KT 5000 DU SCT025 FEW030CB SCT100 BECMG 2600/2601 02007KT 6000 SCT025 SCT100 BECMG 2607/2608 25008KT 6000 FEW025 SCT100 TEMPO 2610/2612 FEW030TCU/CB

4,000개 이상의 공항 관측 자료 및 예보 (METAR 및 TAF 보고).

지도상에서 검색 가능한 기상관측소가 노란 점과 빨간 점으로 표시되어 있습니다.

기상관측소 명을 보려면 표시 위로 마우스를 이동하세요.

날씨 관측과 예보를 보려면 클릭하세요.

지도 변경 : 확대하려면 엑스 표시가 있는 녹색 버튼, 축소하려면 빼기 표시가 있는 녹색 버튼, 다음 페이지의 지도를 보려면 녹색 화살표를 클릭하세요.


METAR-TAF: